sensor_id;sensor_type;location;lat;lon;timestamp;pressure;altitude;pressure_sealevel;temperature;humidity
7668;BME280;3876;42.204;24.686;2022-09-13T00:00:29;99077.00;;;17.47;87.34
7668;BME280;3876;42.204;24.686;2022-09-13T00:02:56;99071.72;;;17.49;87.06
7668;BME280;3876;42.204;24.686;2022-09-13T00:05:23;99073.56;;;17.47;87.20
7668;BME280;3876;42.204;24.686;2022-09-13T00:07:51;99068.78;;;17.41;87.46
7668;BME280;3876;42.204;24.686;2022-09-13T00:10:18;99071.38;;;17.41;87.22
7668;BME280;3876;42.204;24.686;2022-09-13T00:12:46;99069.44;;;17.44;86.76
7668;BME280;3876;42.204;24.686;2022-09-13T00:15:13;99067.75;;;17.43;86.51
7668;BME280;3876;42.204;24.686;2022-09-13T00:17:40;99068.47;;;17.45;86.89
7668;BME280;3876;42.204;24.686;2022-09-13T00:20:08;99069.22;;;17.47;86.52
7668;BME280;3876;42.204;24.686;2022-09-13T00:22:35;99068.59;;;17.44;86.74
7668;BME280;3876;42.204;24.686;2022-09-13T00:25:04;99055.72;;;17.42;87.20
7668;BME280;3876;42.204;24.686;2022-09-13T00:27:31;99060.41;;;17.50;86.97
7668;BME280;3876;42.204;24.686;2022-09-13T00:29:59;99057.72;;;17.51;86.75
7668;BME280;3876;42.204;24.686;2022-09-13T00:32:26;99063.00;;;17.50;87.06
7668;BME280;3876;42.204;24.686;2022-09-13T00:34:52;99054.50;;;17.48;87.57
7668;BME280;3876;42.204;24.686;2022-09-13T00:37:19;99064.13;;;17.46;87.43
7668;BME280;3876;42.204;24.686;2022-09-13T00:39:46;99060.81;;;17.44;87.74
7668;BME280;3876;42.204;24.686;2022-09-13T00:42:14;99057.38;;;17.43;87.66
7668;BME280;3876;42.204;24.686;2022-09-13T00:44:56;99065.06;;;17.45;87.87
7668;BME280;3876;42.204;24.686;2022-09-13T00:47:26;99062.38;;;17.46;87.56
7668;BME280;3876;42.204;24.686;2022-09-13T00:49:58;99059.06;;;17.44;88.27
7668;BME280;3876;42.204;24.686;2022-09-13T00:52:29;99055.06;;;17.39;87.68
7668;BME280;3876;42.204;24.686;2022-09-13T00:55:00;99052.03;;;17.32;87.93
7668;BME280;3876;42.204;24.686;2022-09-13T00:57:30;99049.00;;;17.25;88.37
7668;BME280;3876;42.204;24.686;2022-09-13T01:00:03;99048.75;;;17.16;88.79
7668;BME280;3876;42.204;24.686;2022-09-13T01:02:35;99047.09;;;17.15;89.21
7668;BME280;3876;42.204;24.686;2022-09-13T01:05:03;99051.53;;;17.13;89.68
7668;BME280;3876;42.204;24.686;2022-09-13T01:07:30;99048.03;;;17.14;89.38
7668;BME280;3876;42.204;24.686;2022-09-13T01:09:56;99052.56;;;17.10;89.77
7668;BME280;3876;42.204;24.686;2022-09-13T01:12:31;99046.53;;;17.10;90.20
7668;BME280;3876;42.204;24.686;2022-09-13T01:15:02;99034.91;;;17.03;89.90
7668;BME280;3876;42.204;24.686;2022-09-13T01:17:30;99038.13;;;17.06;90.19
7668;BME280;3876;42.204;24.686;2022-09-13T01:19:58;99038.78;;;17.10;90.46
7668;BME280;3876;42.204;24.686;2022-09-13T01:25:56;99039.59;;;17.10;89.75
7668;BME280;3876;42.204;24.686;2022-09-13T01:28:41;99049.31;;;17.07;90.24
7668;BME280;3876;42.204;24.686;2022-09-13T01:31:23;99039.59;;;17.10;90.01
7668;BME280;3876;42.204;24.686;2022-09-13T01:34:02;99042.50;;;17.06;90.17
7668;BME280;3876;42.204;24.686;2022-09-13T01:36:53;99020.03;;;16.92;90.44
7668;BME280;3876;42.204;24.686;2022-09-13T01:39:30;99041.22;;;16.99;90.45
7668;BME280;3876;42.204;24.686;2022-09-13T01:42:12;99034.56;;;16.95;90.69
7668;BME280;3876;42.204;24.686;2022-09-13T01:44:52;99037.22;;;16.93;90.71
7668;BME280;3876;42.204;24.686;2022-09-13T01:47:26;99031.59;;;16.87;90.94
7668;BME280;3876;42.204;24.686;2022-09-13T01:50:05;99025.34;;;16.76;91.74
7668;BME280;3876;42.204;24.686;2022-09-13T01:52:41;99035.50;;;16.79;91.48
7668;BME280;3876;42.204;24.686;2022-09-13T01:55:17;99035.50;;;16.79;91.47
7668;BME280;3876;42.204;24.686;2022-09-13T01:57:51;99039.19;;;16.75;91.75
7668;BME280;3876;42.204;24.686;2022-09-13T02:00:20;99036.44;;;16.78;91.57
7668;BME280;3876;42.204;24.686;2022-09-13T02:02:51;99032.34;;;16.74;91.43
7668;BME280;3876;42.204;24.686;2022-09-13T02:05:24;99020.81;;;16.66;91.86
7668;BME280;3876;42.204;24.686;2022-09-13T02:07:56;99035.13;;;16.71;91.74
7668;BME280;3876;42.204;24.686;2022-09-13T02:10:30;99031.16;;;16.66;91.96
7668;BME280;3876;42.204;24.686;2022-09-13T02:13:00;99027.75;;;16.65;92.33
7668;BME280;3876;42.204;24.686;2022-09-13T02:15:35;99027.28;;;16.59;92.62
7668;BME280;3876;42.204;24.686;2022-09-13T02:18:08;99017.94;;;16.56;92.76
7668;BME280;3876;42.204;24.686;2022-09-13T02:20:37;99020.63;;;16.55;92.32
7668;BME280;3876;42.204;24.686;2022-09-13T02:23:10;99020.78;;;16.52;93.02
7668;BME280;3876;42.204;24.686;2022-09-13T02:25:39;99023.47;;;16.50;92.80
7668;BME280;3876;42.204;24.686;2022-09-13T02:28:08;99024.31;;;16.51;92.63
7668;BME280;3876;42.204;24.686;2022-09-13T02:30:40;99015.97;;;16.46;92.86
7668;BME280;3876;42.204;24.686;2022-09-13T02:33:12;99023.84;;;16.44;92.66
7668;BME280;3876;42.204;24.686;2022-09-13T02:35:45;99023.84;;;16.44;92.65
7668;BME280;3876;42.204;24.686;2022-09-13T02:38:19;99026.88;;;16.37;92.71
7668;BME280;3876;42.204;24.686;2022-09-13T02:40:52;99028.06;;;16.31;92.89
7668;BME280;3876;42.204;24.686;2022-09-13T02:43:26;99032.59;;;16.27;92.64
7668;BME280;3876;42.204;24.686;2022-09-13T02:46:04;99021.59;;;16.24;92.81
7668;BME280;3876;42.204;24.686;2022-09-13T02:48:46;99015.78;;;16.20;92.80
7668;BME280;3876;42.204;24.686;2022-09-13T02:51:17;99020.09;;;16.20;92.92
7668;BME280;3876;42.204;24.686;2022-09-13T02:53:51;99028.59;;;16.22;93.04
7668;BME280;3876;42.204;24.686;2022-09-13T02:56:24;99026.94;;;16.21;92.92
7668;BME280;3876;42.204;24.686;2022-09-13T02:58:57;99024.06;;;16.25;92.82
7668;BME280;3876;42.204;24.686;2022-09-13T03:01:26;99024.72;;;16.29;92.70
7668;BME280;3876;42.204;24.686;2022-09-13T03:03:54;99018.16;;;16.23;92.56
7668;BME280;3876;42.204;24.686;2022-09-13T03:06:22;99028.06;;;16.31;92.82
7668;BME280;3876;42.204;24.686;2022-09-13T03:08:49;99033.78;;;16.36;92.74
7668;BME280;3876;42.204;24.686;2022-09-13T03:11:24;99031.78;;;16.41;92.06
7668;BME280;3876;42.204;24.686;2022-09-13T03:14:07;99032.59;;;16.42;92.26
7668;BME280;3876;42.204;24.686;2022-09-13T03:16:47;99036.56;;;16.33;92.87
7668;BME280;3876;42.204;24.686;2022-09-13T03:19:29;99013.44;;;16.16;93.35
7668;BME280;3876;42.204;24.686;2022-09-13T03:22:13;99047.09;;;16.30;93.70
7668;BME280;3876;42.204;24.686;2022-09-13T03:24:49;99040.25;;;16.29;93.59
7668;BME280;3876;42.204;24.686;2022-09-13T03:27:27;99043.59;;;16.31;93.61
7668;BME280;3876;42.204;24.686;2022-09-13T03:30:00;99044.25;;;16.35;93.20
7668;BME280;3876;42.204;24.686;2022-09-13T03:32:35;99041.38;;;16.39;93.25
7668;BME280;3876;42.204;24.686;2022-09-13T03:35:09;99048.03;;;16.43;92.90
7668;BME280;3876;42.204;24.686;2022-09-13T03:37:46;98999.78;;;16.14;92.84
7668;BME280;3876;42.204;24.686;2022-09-13T03:40:21;99029.72;;;16.32;92.81
7668;BME280;3876;42.204;24.686;2022-09-13T03:42:54;99024.19;;;16.24;93.27
7668;BME280;3876;42.204;24.686;2022-09-13T03:45:28;99047.75;;;16.34;94.03
7668;BME280;3876;42.204;24.686;2022-09-13T03:47:57;99049.13;;;16.25;94.86
7668;BME280;3876;42.204;24.686;2022-09-13T03:50:26;99056.69;;;16.14;95.41
7668;BME280;3876;42.204;24.686;2022-09-13T03:52:58;99055.34;;;16.07;95.99
7668;BME280;3876;42.204;24.686;2022-09-13T03:55:26;99047.06;;;16.02;96.48
7668;BME280;3876;42.204;24.686;2022-09-13T03:57:54;99050.81;;;15.96;97.01
7668;BME280;3876;42.204;24.686;2022-09-13T04:00:21;99039.41;;;15.85;97.21
7668;BME280;3876;42.204;24.686;2022-09-13T04:02:48;99047.47;;;15.94;97.31
7668;BME280;3876;42.204;24.686;2022-09-13T04:05:15;99054.41;;;15.94;97.49
7668;BME280;3876;42.204;24.686;2022-09-13T04:07:43;99049.41;;;15.91;97.23
7668;BME280;3876;42.204;24.686;2022-09-13T04:10:10;99049.34;;;15.92;97.42
7668;BME280;3876;42.204;24.686;2022-09-13T04:12:37;99052.91;;;15.90;96.77
7668;BME280;3876;42.204;24.686;2022-09-13T04:15:07;99059.75;;;15.91;96.73
7668;BME280;3876;42.204;24.686;2022-09-13T04:17:34;99059.91;;;15.88;96.82
7668;BME280;3876;42.204;24.686;2022-09-13T04:20:01;99064.44;;;15.84;96.97
7668;BME280;3876;42.204;24.686;2022-09-13T04:22:30;99066.19;;;15.84;96.95
7668;BME280;3876;42.204;24.686;2022-09-13T04:24:59;99049.88;;;15.67;97.55
7668;BME280;3876;42.204;24.686;2022-09-13T04:27:26;99060.63;;;15.75;98.08
7668;BME280;3876;42.204;24.686;2022-09-13T04:29:53;99055.28;;;15.79;98.60
7668;BME280;3876;42.204;24.686;2022-09-13T04:32:20;99064.72;;;15.80;98.96
7668;BME280;3876;42.204;24.686;2022-09-13T04:34:46;99062.31;;;15.77;99.12
7668;BME280;3876;42.204;24.686;2022-09-13T04:37:13;99066.19;;;15.84;99.42
7668;BME280;3876;42.204;24.686;2022-09-13T04:39:40;99068.28;;;15.93;98.67
7668;BME280;3876;42.204;24.686;2022-09-13T04:42:09;99072.91;;;16.02;98.49
7668;BME280;3876;42.204;24.686;2022-09-13T04:44:36;99070.88;;;16.07;98.38
7668;BME280;3876;42.204;24.686;2022-09-13T04:47:04;99059.63;;;16.08;97.85
7668;BME280;3876;42.204;24.686;2022-09-13T04:49:32;99071.47;;;16.26;96.61
7668;BME280;3876;42.204;24.686;2022-09-13T04:51:59;99074.94;;;16.41;95.94
7668;BME280;3876;42.204;24.686;2022-09-13T04:54:26;99076.69;;;16.54;95.29
7668;BME280;3876;42.204;24.686;2022-09-13T04:56:53;99070.81;;;16.66;94.42
7668;BME280;3876;42.204;24.686;2022-09-13T04:59:21;99077.13;;;16.76;93.69
7668;BME280;3876;42.204;24.686;2022-09-13T05:01:48;99072.66;;;16.93;92.25
7668;BME280;3876;42.204;24.686;2022-09-13T05:04:15;99081.88;;;17.11;91.75
7668;BME280;3876;42.204;24.686;2022-09-13T05:06:41;99080.72;;;17.29;90.26
7668;BME280;3876;42.204;24.686;2022-09-13T05:09:11;99084.78;;;17.47;90.62
7668;BME280;3876;42.204;24.686;2022-09-13T05:11:38;99078.66;;;17.62;89.11
7668;BME280;3876;42.204;24.686;2022-09-13T05:14:05;99072.66;;;17.74;87.16
7668;BME280;3876;42.204;24.686;2022-09-13T05:16:33;99093.06;;;17.93;86.54
7668;BME280;3876;42.204;24.686;2022-09-13T05:19:00;99083.53;;;18.06;86.45
7668;BME280;3876;42.204;24.686;2022-09-13T05:21:27;99088.78;;;18.19;85.92
7668;BME280;3876;42.204;24.686;2022-09-13T05:23:56;99094.19;;;18.41;85.40
7668;BME280;3876;42.204;24.686;2022-09-13T05:26:26;99071.34;;;18.46;85.49
7668;BME280;3876;42.204;24.686;2022-09-13T05:28:53;99081.25;;;18.66;84.62
7668;BME280;3876;42.204;24.686;2022-09-13T05:31:21;99072.00;;;18.75;84.30
7668;BME280;3876;42.204;24.686;2022-09-13T05:33:54;99093.69;;;18.99;84.23
7668;BME280;3876;42.204;24.686;2022-09-13T05:36:21;99086.56;;;19.14;83.50
7668;BME280;3876;42.204;24.686;2022-09-13T05:38:48;99089.53;;;19.33;82.41
7668;BME280;3876;42.204;24.686;2022-09-13T05:41:15;99088.69;;;19.58;82.95
7668;BME280;3876;42.204;24.686;2022-09-13T05:43:42;99083.19;;;19.73;80.16
7668;BME280;3876;42.204;24.686;2022-09-13T05:46:10;99095.75;;;19.79;80.38
7668;BME280;3876;42.204;24.686;2022-09-13T05:48:38;99092.97;;;19.93;79.61
7668;BME280;3876;42.204;24.686;2022-09-13T05:51:08;99081.44;;;20.09;79.68
7668;BME280;3876;42.204;24.686;2022-09-13T05:53:36;99078.16;;;20.18;79.96
7668;BME280;3876;42.204;24.686;2022-09-13T05:56:04;99085.81;;;20.32;79.02
7668;BME280;3876;42.204;24.686;2022-09-13T05:58:31;99069.03;;;20.47;78.24
7668;BME280;3876;42.204;24.686;2022-09-13T06:00:59;99089.41;;;20.75;78.31
7668;BME280;3876;42.204;24.686;2022-09-13T06:03:26;99088.22;;;20.90;77.61
7668;BME280;3876;42.204;24.686;2022-09-13T06:05:56;99085.50;;;20.92;75.63
7668;BME280;3876;42.204;24.686;2022-09-13T06:08:26;99090.59;;;21.05;75.01
7668;BME280;3876;42.204;24.686;2022-09-13T06:10:54;99093.09;;;21.06;74.84
7668;BME280;3876;42.204;24.686;2022-09-13T06:13:22;99088.81;;;21.05;74.03
7668;BME280;3876;42.204;24.686;2022-09-13T06:15:49;99090.59;;;21.05;73.74
7668;BME280;3876;42.204;24.686;2022-09-13T06:18:16;99092.97;;;20.97;73.88
7668;BME280;3876;42.204;24.686;2022-09-13T06:20:43;99097.72;;;21.03;74.02
7668;BME280;3876;42.204;24.686;2022-09-13T06:23:10;99081.59;;;21.09;74.31
7668;BME280;3876;42.204;24.686;2022-09-13T06:25:38;99085.13;;;21.30;73.70
7668;BME280;3876;42.204;24.686;2022-09-13T06:28:05;99101.06;;;21.59;71.45
7668;BME280;3876;42.204;24.686;2022-09-13T06:30:32;99095.94;;;21.68;70.73
7668;BME280;3876;42.204;24.686;2022-09-13T06:32:59;99095.69;;;21.71;69.89
7668;BME280;3876;42.204;24.686;2022-09-13T06:35:26;99104.19;;;21.95;70.39
7668;BME280;3876;42.204;24.686;2022-09-13T06:37:54;99110.50;;;22.14;69.36
7668;BME280;3876;42.204;24.686;2022-09-13T06:40:21;99111.88;;;22.29;68.45
7668;BME280;3876;42.204;24.686;2022-09-13T06:42:50;99108.16;;;22.52;69.95
7668;BME280;3876;42.204;24.686;2022-09-13T06:45:17;99108.88;;;22.75;68.49
7668;BME280;3876;42.204;24.686;2022-09-13T06:47:43;99112.03;;;22.99;65.87
7668;BME280;3876;42.204;24.686;2022-09-13T06:50:10;99110.50;;;22.96;66.22
7668;BME280;3876;42.204;24.686;2022-09-13T06:52:38;99114.13;;;23.05;67.04
7668;BME280;3876;42.204;24.686;2022-09-13T06:55:05;99124.47;;;23.07;65.70
7668;BME280;3876;42.204;24.686;2022-09-13T06:57:32;99110.84;;;23.13;65.72
7668;BME280;3876;42.204;24.686;2022-09-13T07:00:00;99122.53;;;23.09;64.43
7668;BME280;3876;42.204;24.686;2022-09-13T07:02:27;99118.44;;;23.16;64.23
7668;BME280;3876;42.204;24.686;2022-09-13T07:04:54;99120.06;;;23.17;63.77
7668;BME280;3876;42.204;24.686;2022-09-13T07:07:21;99121.72;;;23.18;62.97
7668;BME280;3876;42.204;24.686;2022-09-13T07:09:47;99098.31;;;23.07;63.60
7668;BME280;3876;42.204;24.686;2022-09-13T07:12:14;99119.84;;;23.29;62.44
7668;BME280;3876;42.204;24.686;2022-09-13T07:14:41;99126.41;;;23.44;63.90
7668;BME280;3876;42.204;24.686;2022-09-13T07:17:09;99123.25;;;23.60;60.85
7668;BME280;3876;42.204;24.686;2022-09-13T07:19:36;99119.00;;;23.78;62.52
7668;BME280;3876;42.204;24.686;2022-09-13T07:22:03;99129.63;;;23.77;61.57
7668;BME280;3876;42.204;24.686;2022-09-13T07:24:30;99126.56;;;23.81;61.29
7668;BME280;3876;42.204;24.686;2022-09-13T07:26:57;99129.38;;;23.89;60.77
7668;BME280;3876;42.204;24.686;2022-09-13T07:29:23;99133.78;;;24.08;59.52
7668;BME280;3876;42.204;24.686;2022-09-13T07:31:51;99136.03;;;24.13;59.95
7668;BME280;3876;42.204;24.686;2022-09-13T07:34:21;99129.94;;;24.12;58.64
7668;BME280;3876;42.204;24.686;2022-09-13T07:36:49;99124.81;;;24.30;55.42
7668;BME280;3876;42.204;24.686;2022-09-13T07:39:17;99123.72;;;24.51;57.16
7668;BME280;3876;42.204;24.686;2022-09-13T07:41:44;99107.25;;;24.59;58.33
7668;BME280;3876;42.204;24.686;2022-09-13T07:44:12;99133.16;;;24.81;51.28
7668;BME280;3876;42.204;24.686;2022-09-13T07:46:39;99115.53;;;24.83;51.08
7668;BME280;3876;42.204;24.686;2022-09-13T07:49:09;99128.94;;;25.07;51.09
7668;BME280;3876;42.204;24.686;2022-09-13T07:51:40;99129.69;;;25.27;53.67
7668;BME280;3876;42.204;24.686;2022-09-13T07:54:09;99128.25;;;25.42;49.55
7668;BME280;3876;42.204;24.686;2022-09-13T07:56:38;99124.31;;;25.56;50.49
7668;BME280;3876;42.204;24.686;2022-09-13T07:59:07;99132.34;;;25.72;47.06
7668;BME280;3876;42.204;24.686;2022-09-13T08:01:38;99130.72;;;25.89;49.42
7668;BME280;3876;42.204;24.686;2022-09-13T08:04:06;99135.75;;;25.82;48.87
7668;BME280;3876;42.204;24.686;2022-09-13T08:06:34;99130.50;;;25.82;47.35
7668;BME280;3876;42.204;24.686;2022-09-13T08:09:04;99127.88;;;26.00;49.61
7668;BME280;3876;42.204;24.686;2022-09-13T08:11:33;99126.97;;;25.91;49.83
7668;BME280;3876;42.204;24.686;2022-09-13T08:14:01;99125.38;;;25.98;49.86
7668;BME280;3876;42.204;24.686;2022-09-13T08:16:28;99114.38;;;26.13;46.63
7668;BME280;3876;42.204;24.686;2022-09-13T08:18:56;99127.44;;;26.22;47.14
7668;BME280;3876;42.204;24.686;2022-09-13T08:21:24;99116.53;;;26.35;48.58
7668;BME280;3876;42.204;24.686;2022-09-13T08:23:54;99131.09;;;26.47;45.85
7668;BME280;3876;42.204;24.686;2022-09-13T08:26:25;99120.84;;;26.61;46.31
7668;BME280;3876;42.204;24.686;2022-09-13T08:28:55;99130.88;;;26.66;42.10
7668;BME280;3876;42.204;24.686;2022-09-13T08:31:22;99128.22;;;26.58;44.73
7668;BME280;3876;42.204;24.686;2022-09-13T08:33:49;99113.22;;;26.15;44.39
7668;BME280;3876;42.204;24.686;2022-09-13T08:36:16;99125.00;;;26.11;46.89
7668;BME280;3876;42.204;24.686;2022-09-13T08:38:45;99119.25;;;26.25;46.02
7668;BME280;3876;42.204;24.686;2022-09-13T08:41:37;99109.09;;;26.30;45.54
7668;BME280;3876;42.204;24.686;2022-09-13T08:44:12;99107.91;;;26.25;47.56
7668;BME280;3876;42.204;24.686;2022-09-13T08:46:48;99116.22;;;26.38;45.51
7668;BME280;3876;42.204;24.686;2022-09-13T08:49:19;99106.16;;;26.51;43.76
7668;BME280;3876;42.204;24.686;2022-09-13T08:51:47;99104.13;;;26.71;47.70
7668;BME280;3876;42.204;24.686;2022-09-13T08:54:17;99092.97;;;26.69;46.01
7668;BME280;3876;42.204;24.686;2022-09-13T08:56:50;99105.31;;;26.76;44.80
7668;BME280;3876;42.204;24.686;2022-09-13T08:59:28;99111.09;;;26.54;45.09
7668;BME280;3876;42.204;24.686;2022-09-13T09:02:08;99106.03;;;26.35;43.90
7668;BME280;3876;42.204;24.686;2022-09-13T09:04:43;99107.47;;;25.94;45.42
7668;BME280;3876;42.204;24.686;2022-09-13T09:07:15;99077.16;;;25.37;46.24
7668;BME280;3876;42.204;24.686;2022-09-13T09:09:46;99093.97;;;25.44;46.25
7668;BME280;3876;42.204;24.686;2022-09-13T09:12:23;99094.56;;;25.38;46.87
7668;BME280;3876;42.204;24.686;2022-09-13T09:14:58;99096.50;;;25.08;46.71
7668;BME280;3876;42.204;24.686;2022-09-13T09:17:30;99100.28;;;24.96;47.59
7668;BME280;3876;42.204;24.686;2022-09-13T09:20:06;99094.25;;;24.86;46.59
7668;BME280;3876;42.204;24.686;2022-09-13T09:22:35;99100.03;;;24.80;45.81
7668;BME280;3876;42.204;24.686;2022-09-13T09:25:02;99108.88;;;24.79;45.18
7668;BME280;3876;42.204;24.686;2022-09-13T09:27:31;99078.56;;;24.67;44.39
7668;BME280;3876;42.204;24.686;2022-09-13T09:30:00;99099.50;;;24.86;43.76
7668;BME280;3876;42.204;24.686;2022-09-13T09:32:42;99100.59;;;24.93;44.25
7668;BME280;3876;42.204;24.686;2022-09-13T09:35:19;99107.19;;;24.97;43.85
7668;BME280;3876;42.204;24.686;2022-09-13T09:38:05;99098.59;;;25.05;45.12
7668;BME280;3876;42.204;24.686;2022-09-13T09:40:36;99100.53;;;25.03;44.91
7668;BME280;3876;42.204;24.686;2022-09-13T09:45:38;99102.50;;;24.91;43.24
7668;BME280;3876;42.204;24.686;2022-09-13T09:48:11;99102.78;;;24.88;44.65
7668;BME280;3876;42.204;24.686;2022-09-13T09:50:46;99110.00;;;24.86;43.21
7668;BME280;3876;42.204;24.686;2022-09-13T09:53:17;99117.94;;;24.94;44.56
7668;BME280;3876;42.204;24.686;2022-09-13T09:55:51;99119.94;;;24.73;43.82
7668;BME280;3876;42.204;24.686;2022-09-13T09:58:36;99107.91;;;24.80;43.96
7668;BME280;3876;42.204;24.686;2022-09-13T10:01:04;99113.31;;;24.69;43.18
7668;BME280;3876;42.204;24.686;2022-09-13T10:03:32;99116.06;;;24.77;44.44
7668;BME280;3876;42.204;24.686;2022-09-13T10:06:05;99102.94;;;24.87;45.24
7668;BME280;3876;42.204;24.686;2022-09-13T10:08:33;99103.28;;;25.01;45.74
7668;BME280;3876;42.204;24.686;2022-09-13T10:11:02;99098.53;;;25.15;44.73
7668;BME280;3876;42.204;24.686;2022-09-13T10:13:30;99095.72;;;25.26;45.50
7668;BME280;3876;42.204;24.686;2022-09-13T10:15:59;99099.03;;;25.28;46.76
7668;BME280;3876;42.204;24.686;2022-09-13T10:18:27;99095.16;;;25.32;46.09
7668;BME280;3876;42.204;24.686;2022-09-13T10:21:00;99091.56;;;25.33;44.86
7668;BME280;3876;42.204;24.686;2022-09-13T10:23:28;99087.81;;;25.35;41.86
7668;BME280;3876;42.204;24.686;2022-09-13T10:25:59;99064.53;;;25.23;43.89
7668;BME280;3876;42.204;24.686;2022-09-13T10:28:31;99083.00;;;25.31;44.42
7668;BME280;3876;42.204;24.686;2022-09-13T10:31:02;99078.19;;;25.26;46.89
7668;BME280;3876;42.204;24.686;2022-09-13T10:33:32;99073.56;;;25.38;44.37
7668;BME280;3876;42.204;24.686;2022-09-13T10:36:02;99071.81;;;25.56;44.00
7668;BME280;3876;42.204;24.686;2022-09-13T10:38:32;99068.22;;;25.57;41.55
7668;BME280;3876;42.204;24.686;2022-09-13T10:41:04;99064.16;;;25.63;43.57
7668;BME280;3876;42.204;24.686;2022-09-13T10:43:34;99061.63;;;25.71;44.10
7668;BME280;3876;42.204;24.686;2022-09-13T10:46:03;99046.47;;;25.65;41.86
7668;BME280;3876;42.204;24.686;2022-09-13T10:48:43;99054.56;;;25.71;41.38
7668;BME280;3876;42.204;24.686;2022-09-13T10:51:20;99053.81;;;25.61;41.94
7668;BME280;3876;42.204;24.686;2022-09-13T10:54:15;99051.25;;;25.69;43.95
7668;BME280;3876;42.204;24.686;2022-09-13T10:56:43;99030.41;;;25.68;47.13
7668;BME280;3876;42.204;24.686;2022-09-13T10:59:19;99044.59;;;25.75;42.11
7668;BME280;3876;42.204;24.686;2022-09-13T11:02:09;99047.44;;;25.81;41.04
7668;BME280;3876;42.204;24.686;2022-09-13T11:04:55;99040.59;;;25.88;40.98
7668;BME280;3876;42.204;24.686;2022-09-13T11:07:48;99039.09;;;26.03;40.42
7668;BME280;3876;42.204;24.686;2022-09-13T11:10:22;99035.13;;;26.17;44.02
7668;BME280;3876;42.204;24.686;2022-09-13T11:12:55;99029.03;;;26.17;39.58
7668;BME280;3876;42.204;24.686;2022-09-13T11:18:43;99034.13;;;26.18;43.22
7668;BME280;3876;42.204;24.686;2022-09-13T11:21:29;99038.09;;;26.22;42.72
7668;BME280;3876;42.204;24.686;2022-09-13T11:27:12;99030.28;;;26.13;43.14
7668;BME280;3876;42.204;24.686;2022-09-13T11:29:52;99028.72;;;26.02;43.62
7668;BME280;3876;42.204;24.686;2022-09-13T11:32:31;99031.66;;;25.99;41.99
7668;BME280;3876;42.204;24.686;2022-09-13T11:35:17;99029.78;;;25.91;42.83
7668;BME280;3876;42.204;24.686;2022-09-13T11:37:53;99026.13;;;25.84;43.21
7668;BME280;3876;42.204;24.686;2022-09-13T11:40:36;99027.31;;;25.72;43.46
7668;BME280;3876;42.204;24.686;2022-09-13T11:43:18;99021.84;;;25.66;43.56
7668;BME280;3876;42.204;24.686;2022-09-13T11:45:55;99020.06;;;25.66;43.29
7668;BME280;3876;42.204;24.686;2022-09-13T11:48:39;99024.25;;;25.59;42.93
7668;BME280;3876;42.204;24.686;2022-09-13T11:51:14;99012.13;;;25.58;44.80
7668;BME280;3876;42.204;24.686;2022-09-13T11:54:04;99016.25;;;25.61;45.72
7668;BME280;3876;42.204;24.686;2022-09-13T11:56:33;99007.84;;;25.75;44.21
7668;BME280;3876;42.204;24.686;2022-09-13T11:59:11;99008.19;;;25.97;42.63
7668;BME280;3876;42.204;24.686;2022-09-13T12:01:44;99016.00;;;26.15;41.77
7668;BME280;3876;42.204;24.686;2022-09-13T12:04:17;99009.41;;;26.29;39.48
7668;BME280;3876;42.204;24.686;2022-09-13T12:06:50;99005.84;;;26.38;40.64
7668;BME280;3876;42.204;24.686;2022-09-13T12:09:22;99009.53;;;26.53;40.11
7668;BME280;3876;42.204;24.686;2022-09-13T12:11:53;99008.94;;;26.59;40.19
7668;BME280;3876;42.204;24.686;2022-09-13T12:14:26;99009.28;;;26.72;39.06
7668;BME280;3876;42.204;24.686;2022-09-13T12:16:58;99014.25;;;26.75;39.48
7668;BME280;3876;42.204;24.686;2022-09-13T12:19:38;99015.88;;;26.76;39.50
7668;BME280;3876;42.204;24.686;2022-09-13T12:22:08;99013.00;;;26.87;37.91
7668;BME280;3876;42.204;24.686;2022-09-13T12:24:41;99019.47;;;27.01;38.15
7668;BME280;3876;42.204;24.686;2022-09-13T12:27:12;99018.16;;;27.05;37.85
7668;BME280;3876;42.204;24.686;2022-09-13T12:29:49;99021.94;;;27.02;37.16
7668;BME280;3876;42.204;24.686;2022-09-13T12:32:17;99021.44;;;26.99;35.89
7668;BME280;3876;42.204;24.686;2022-09-13T12:34:49;99018.66;;;27.00;36.85
7668;BME280;3876;42.204;24.686;2022-09-13T12:40:42;99011.72;;;26.99;38.17
7668;BME280;3876;42.204;24.686;2022-09-13T12:43:46;98994.63;;;26.95;38.72
7668;BME280;3876;42.204;24.686;2022-09-13T12:46:30;98995.94;;;26.99;36.60
7668;BME280;3876;42.204;24.686;2022-09-13T12:49:28;99011.78;;;27.16;37.46
7668;BME280;3876;42.204;24.686;2022-09-13T12:52:15;99006.53;;;27.16;37.57
7668;BME280;3876;42.204;24.686;2022-09-13T12:55:12;99002.09;;;27.16;38.59
7668;BME280;3876;42.204;24.686;2022-09-13T12:57:48;99002.59;;;27.20;37.98
7668;BME280;3876;42.204;24.686;2022-09-13T13:00:19;98997.31;;;27.28;38.56
7668;BME280;3876;42.204;24.686;2022-09-13T13:03:02;98990.09;;;27.22;38.60
7668;BME280;3876;42.204;24.686;2022-09-13T13:05:38;98998.00;;;27.30;37.97
7668;BME280;3876;42.204;24.686;2022-09-13T13:08:22;99000.97;;;27.27;37.53
7668;BME280;3876;42.204;24.686;2022-09-13T13:10:59;98996.00;;;27.16;36.25
7668;BME280;3876;42.204;24.686;2022-09-13T13:13:33;99011.47;;;27.19;37.23
7668;BME280;3876;42.204;24.686;2022-09-13T13:16:04;99007.53;;;27.23;36.88
7668;BME280;3876;42.204;24.686;2022-09-13T13:18:44;99003.59;;;27.27;39.06
7668;BME280;3876;42.204;24.686;2022-09-13T13:21:31;98997.66;;;27.25;34.98
7668;BME280;3876;42.204;24.686;2022-09-13T13:30:41;99010.78;;;27.08;36.44
7668;BME280;3876;42.204;24.686;2022-09-13T13:33:16;99014.41;;;27.07;36.36
7668;BME280;3876;42.204;24.686;2022-09-13T13:35:44;99017.19;;;27.06;36.21
7668;BME280;3876;42.204;24.686;2022-09-13T13:38:16;99008.31;;;27.07;36.45
7668;BME280;3876;42.204;24.686;2022-09-13T13:40:45;99010.75;;;27.00;37.84
7668;BME280;3876;42.204;24.686;2022-09-13T13:43:28;99015.97;;;26.92;38.26
7668;BME280;3876;42.204;24.686;2022-09-13T13:45:57;99014.75;;;26.79;37.33
7668;BME280;3876;42.204;24.686;2022-09-13T13:48:36;99014.97;;;26.85;36.76
7668;BME280;3876;42.204;24.686;2022-09-13T13:51:27;99015.97;;;26.92;38.76
7668;BME280;3876;42.204;24.686;2022-09-13T13:53:58;99018.97;;;26.97;35.87
7668;BME280;3876;42.204;24.686;2022-09-13T13:59:16;99008.91;;;26.93;35.24